Time;durP1;ratioP1;P1;durP2;ratioP2;P2;SDS_P1;SDS_P2;PMS_P1;PMS_P2;Temp;Humidity;BMP_temperature;BMP_pressure;BME280_temperature;BME280_humidity;BME280_pressure;Samples;Min_cycle;Max_cycle;Signal;HPM_P1;HPM_P2
2022/04/14 00:01:50;;;;;;;5.00;1.58;;;18.10;63.40;;;;;;5016330;28;20108;-61
2022/04/14 00:04:15;;;;;;;4.38;1.65;;;18.00;63.30;;;;;;5017416;28;20175;-61
2022/04/14 00:06:41;;;;;;;5.55;1.67;;;18.00;63.30;;;;;;5023382;28;20435;-62
2022/04/14 00:09:07;;;;;;;3.38;1.45;;;18.10;63.40;;;;;;5016852;28;20434;-61
2022/04/14 00:11:32;;;;;;;4.20;1.58;;;18.10;63.40;;;;;;5022438;28;20032;-61
2022/04/14 00:13:58;;;;;;;3.83;1.48;;;18.10;63.40;;;;;;5015009;28;20806;-61
2022/04/14 00:16:23;;;;;;;5.38;1.60;;;18.00;64.40;;;;;;5015496;28;20037;-61
2022/04/14 00:18:49;;;;;;;5.60;1.70;;;18.00;63.40;;;;;;5014637;28;20417;-61
2022/04/14 00:21:15;;;;;;;5.28;1.85;;;18.00;63.30;;;;;;5020429;28;20029;-61
2022/04/14 00:23:40;;;;;;;6.32;1.60;;;18.00;63.30;;;;;;5019249;28;20100;-61
2022/04/14 00:26:06;;;;;;;4.95;1.40;;;18.00;63.30;;;;;;5020259;28;20025;-62
2022/04/14 00:28:32;;;;;;;5.97;1.60;;;18.00;63.30;;;;;;5022841;28;20045;-61
2022/04/14 00:30:59;;;;;;;4.03;1.50;;;18.00;63.30;;;;;;5014919;28;20022;-61
2022/04/14 00:33:26;;;;;;;4.80;1.85;;;18.00;63.30;;;;;;5020269;28;20045;-62
2022/04/14 00:35:52;;;;;;;5.28;1.77;;;18.00;63.30;;;;;;5015566;28;20022;-61
2022/04/14 00:38:18;;;;;;;3.75;1.50;;;18.00;63.30;;;;;;5016712;28;20030;-61
2022/04/14 00:40:43;;;;;;;4.50;1.50;;;18.00;63.30;;;;;;5020317;28;20112;-61
2022/04/14 00:43:09;;;;;;;5.47;1.80;;;17.90;63.20;;;;;;5016191;28;20116;-61
2022/04/14 00:45:35;;;;;;;4.93;1.65;;;17.90;63.20;;;;;;5018016;28;20057;-62
2022/04/14 00:48:00;;;;;;;4.90;1.58;;;17.90;63.20;;;;;;5012513;28;20022;-61
2022/04/14 00:50:26;;;;;;;4.55;1.67;;;17.90;63.20;;;;;;5019745;28;20045;-61
2022/04/14 00:52:53;;;;;;;3.85;1.38;;;17.90;63.20;;;;;;5012872;28;20021;-61
2022/04/14 00:55:18;;;;;;;3.95;1.55;;;17.90;64.30;;;;;;5017385;28;20048;-61
2022/04/14 00:57:44;;;;;;;3.13;1.35;;;17.90;63.20;;;;;;5018615;28;20030;-61
2022/04/14 01:00:10;;;;;;;4.28;1.40;;;17.90;63.30;;;;;;5017731;28;20898;-61
2022/04/14 01:02:36;;;;;;;2.42;1.30;;;17.80;63.20;;;;;;5013775;28;20068;-62
2022/04/14 01:05:01;;;;;;;4.93;1.60;;;17.80;63.20;;;;;;5015001;28;20025;-61
2022/04/14 01:07:27;;;;;;;3.78;1.45;;;17.80;63.20;;;;;;5014537;28;20037;-61
2022/04/14 01:09:53;;;;;;;2.70;1.15;;;17.80;63.20;;;;;;5023564;28;20080;-61
2022/04/14 01:12:19;;;;;;;4.07;1.33;;;17.80;63.10;;;;;;5017620;28;20030;-61
2022/04/14 01:14:45;;;;;;;4.30;1.40;;;17.80;63.10;;;;;;5014615;28;20053;-61
2022/04/14 01:17:10;;;;;;;5.60;1.70;;;17.80;63.10;;;;;;5015723;28;20026;-61
2022/04/14 01:19:36;;;;;;;5.47;1.50;;;17.80;63.10;;;;;;5018420;28;20037;-61
2022/04/14 01:22:11;;;;;;;3.88;1.65;;;17.80;63.10;;;;;;5013629;28;20392;-61
2022/04/14 01:24:37;;;;;;;3.97;1.15;;;17.80;63.10;;;;;;5016560;28;20044;-61
2022/04/14 01:27:03;;;;;;;2.83;1.48;;;17.80;63.10;;;;;;5018180;28;20490;-61
2022/04/14 01:29:29;;;;;;;5.40;1.40;;;17.80;63.10;;;;;;5016991;28;20029;-62
2022/04/14 01:31:55;;;;;;;2.00;1.20;;;17.70;63.40;;;;;;5017583;28;20024;-61
2022/04/14 01:34:21;;;;;;;3.92;1.50;;;17.80;63.20;;;;;;5011742;28;20101;-62
2022/04/14 01:36:46;;;;;;;3.95;1.63;;;17.70;64.10;;;;;;5015180;28;20077;-61
2022/04/14 01:39:13;;;;;;;5.63;1.60;;;17.70;63.10;;;;;;5016263;28;20108;-61
2022/04/14 01:41:39;;;;;;;5.05;1.70;;;17.70;63.10;;;;;;5019781;28;20069;-61
2022/04/14 01:44:05;;;;;;;4.45;1.60;;;17.70;63.10;;;;;;5018331;28;20029;-62
2022/04/14 01:46:31;;;;;;;3.05;1.38;;;17.70;63.10;;;;;;4970379;28;1220843;-61
2022/04/14 01:48:59;;;;;;;3.63;1.42;;;17.70;63.10;;;;;;5023281;28;20061;-61
2022/04/14 01:51:25;;;;;;;3.25;1.10;;;17.70;63.10;;;;;;5023858;28;20041;-61
2022/04/14 01:53:51;;;;;;;3.30;1.15;;;17.70;63.10;;;;;;5016945;28;20040;-61
2022/04/14 01:56:18;;;;;;;3.47;1.30;;;17.70;63.00;;;;;;5016278;28;20017;-61
2022/04/14 01:58:44;;;;;;;3.63;1.40;;;17.70;63.10;;;;;;5019397;28;20087;-61
2022/04/14 02:01:09;;;;;;;3.00;1.45;;;17.70;63.00;;;;;;5016385;28;20506;-61
2022/04/14 02:03:36;;;;;;;3.78;1.48;;;17.60;63.00;;;;;;5016243;28;20064;-61
2022/04/14 02:06:02;;;;;;;3.63;1.40;;;17.60;63.00;;;;;;5020881;28;20025;-62
2022/04/14 02:08:28;;;;;;;4.00;1.67;;;17.60;63.00;;;;;;5019807;28;20494;-61
2022/04/14 02:10:54;;;;;;;1.90;1.05;;;17.60;63.10;;;;;;5014439;28;20536;-61
2022/04/14 02:13:19;;;;;;;4.07;1.52;;;17.60;63.00;;;;;;5013461;28;20100;-61
2022/04/14 02:15:45;;;;;;;4.03;1.33;;;17.60;63.00;;;;;;5011449;28;20033;-61
2022/04/14 02:18:10;;;;;;;2.83;1.30;;;17.60;63.00;;;;;;5015131;28;20028;-61
2022/04/14 02:20:36;;;;;;;3.33;1.35;;;17.60;63.00;;;;;;5014508;28;20033;-61
2022/04/14 02:23:02;;;;;;;3.47;1.45;;;17.60;63.00;;;;;;5018905;28;20049;-62
2022/04/14 02:25:28;;;;;;;3.88;1.23;;;17.60;63.00;;;;;;5016646;28;20053;-62
2022/04/14 02:27:53;;;;;;;2.97;1.23;;;17.60;63.00;;;;;;5013173;28;20022;-61
2022/04/14 02:30:19;;;;;;;4.30;1.58;;;17.60;63.00;;;;;;5017601;28;20088;-61
2022/04/14 02:32:44;;;;;;;4.50;1.40;;;17.50;62.90;;;;;;5016269;28;20030;-62
2022/04/14 02:35:10;;;;;;;3.28;1.27;;;17.60;63.00;;;;;;5015557;28;20048;-61
2022/04/14 02:37:36;;;;;;;3.00;1.38;;;17.60;63.00;;;;;;5020006;28;20026;-61
2022/04/14 02:40:02;;;;;;;2.58;1.10;;;17.60;63.00;;;;;;5014567;28;20022;-61
2022/04/14 02:42:28;;;;;;;4.05;1.40;;;17.60;63.00;;;;;;5014995;28;20317;-61
2022/04/14 02:44:54;;;;;;;4.03;1.38;;;17.50;62.90;;;;;;5014943;28;20477;-60
2022/04/14 02:47:19;;;;;;;4.20;1.40;;;17.60;63.00;;;;;;5013094;28;20037;-60
2022/04/14 02:49:45;;;;;;;3.17;1.13;;;17.60;63.00;;;;;;5012766;28;20037;-60
2022/04/14 02:52:11;;;;;;;4.57;1.45;;;17.50;62.90;;;;;;5014720;28;20030;-59
2022/04/14 02:54:39;;;;;;;2.67;1.30;;;17.50;62.90;;;;;;5015225;28;20041;-59
2022/04/14 02:57:05;;;;;;;3.38;1.30;;;17.50;62.90;;;;;;5015612;28;20085;-59
2022/04/14 02:59:31;;;;;;;3.40;1.30;;;17.50;62.90;;;;;;5017717;28;20044;-61
2022/04/14 03:01:57;;;;;;;3.33;1.40;;;17.50;62.90;;;;;;5014244;28;20022;-60
2022/04/14 03:04:23;;;;;;;2.60;1.33;;;17.50;62.90;;;;;;5017129;28;20679;-60
2022/04/14 03:06:48;;;;;;;2.83;1.20;;;17.50;62.90;;;;;;5016872;28;20047;-59
2022/04/14 03:09:14;;;;;;;4.00;1.80;;;17.50;62.90;;;;;;5023433;28;20397;-59
2022/04/14 03:11:39;;;;;;;3.60;1.30;;;17.50;62.90;;;;;;5021145;28;20459;-59
2022/04/14 03:14:06;;;;;;;3.50;1.35;;;17.50;62.90;;;;;;5015171;28;20065;-59
2022/04/14 03:16:31;;;;;;;2.63;1.30;;;17.50;62.90;;;;;;5023237;28;20036;-59
2022/04/14 03:18:57;;;;;;;4.60;1.40;;;17.50;62.90;;;;;;5011358;28;20046;-59
2022/04/14 03:21:23;;;;;;;4.13;1.70;;;17.50;62.90;;;;;;5015828;28;20383;-59
2022/04/14 03:23:49;;;;;;;3.22;1.23;;;17.40;62.90;;;;;;5015529;28;20510;-59
2022/04/14 03:26:15;;;;;;;2.47;1.00;;;17.40;62.80;;;;;;5015741;28;20033;-59
2022/04/14 03:28:41;;;;;;;2.67;1.17;;;17.40;62.70;;;;;;5012205;28;20052;-60
2022/04/14 03:31:06;;;;;;;3.15;1.30;;;17.40;62.70;;;;;;5012958;28;20033;-59
2022/04/14 03:33:32;;;;;;;4.00;1.55;;;17.40;62.80;;;;;;5020246;28;20037;-59
2022/04/14 03:35:58;;;;;;;3.13;1.30;;;17.40;62.80;;;;;;5017138;28;20052;-60
2022/04/14 03:38:24;;;;;;;2.17;0.95;;;17.40;62.80;;;;;;5017304;28;20034;-59
2022/04/14 03:40:50;;;;;;;2.67;1.25;;;17.40;62.80;;;;;;5012960;28;20111;-59
2022/04/14 03:43:16;;;;;;;2.30;1.20;;;17.40;62.70;;;;;;5013660;28;20108;-59
2022/04/14 03:45:42;;;;;;;1.95;1.00;;;17.40;62.80;;;;;;5013701;28;20076;-59
2022/04/14 03:48:08;;;;;;;2.70;1.05;;;17.40;62.80;;;;;;5019098;28;20706;-59
2022/04/14 03:50:33;;;;;;;2.75;1.25;;;17.30;62.80;;;;;;5019239;28;20021;-59
2022/04/14 03:52:59;;;;;;;3.00;1.50;;;17.40;62.80;;;;;;5012322;28;20118;-59
2022/04/14 03:55:25;;;;;;;2.53;1.05;;;17.40;63.80;;;;;;5012429;28;20030;-59
2022/04/14 03:57:50;;;;;;;2.40;1.10;;;17.40;62.80;;;;;;5021688;28;20022;-61
2022/04/14 04:00:16;;;;;;;2.45;1.23;;;17.30;62.80;;;;;;5018369;28;20033;-60
2022/04/14 04:02:42;;;;;;;3.83;1.40;;;17.30;62.80;;;;;;5014241;28;20510;-58
2022/04/14 04:05:08;;;;;;;4.32;1.38;;;17.30;62.80;;;;;;5012459;28;20128;-59
2022/04/14 04:07:34;;;;;;;2.88;1.20;;;17.40;62.90;;;;;;5015928;28;20018;-59
2022/04/14 04:09:59;;;;;;;3.08;1.25;;;17.30;62.80;;;;;;5008786;28;20084;-59
2022/04/14 04:12:25;;;;;;;2.92;1.20;;;17.30;62.70;;;;;;5012421;28;20030;-59
2022/04/14 04:14:51;;;;;;;3.65;1.35;;;17.30;62.70;;;;;;5014831;28;20042;-59
2022/04/14 04:17:16;;;;;;;2.83;1.23;;;17.30;62.70;;;;;;5016709;28;20021;-59
2022/04/14 04:19:43;;;;;;;2.25;1.30;;;17.30;62.70;;;;;;5014776;28;20025;-59
2022/04/14 04:22:09;;;;;;;2.08;1.00;;;17.30;62.70;;;;;;5012524;28;20041;-59
2022/04/14 04:24:35;;;;;;;5.03;1.20;;;17.30;62.70;;;;;;5010621;28;21935;-61
2022/04/14 04:27:00;;;;;;;2.53;1.10;;;17.30;62.70;;;;;;5014827;28;20026;-59
2022/04/14 04:29:26;;;;;;;2.67;1.08;;;17.30;62.70;;;;;;5017033;28;20033;-59
2022/04/14 04:31:52;;;;;;;3.78;1.42;;;17.30;62.60;;;;;;5024368;28;20013;-59
2022/04/14 04:34:18;;;;;;;2.40;1.20;;;17.30;62.70;;;;;;5012080;28;20095;-59
2022/04/14 04:36:43;;;;;;;3.20;1.13;;;17.20;62.70;;;;;;5016704;28;20026;-59
2022/04/14 04:39:09;;;;;;;1.83;0.93;;;17.30;62.70;;;;;;5016520;28;20029;-59
2022/04/14 04:41:34;;;;;;;2.28;1.13;;;17.20;62.60;;;;;;5019585;28;20033;-59
2022/04/14 04:44:00;;;;;;;3.25;1.10;;;17.20;62.70;;;;;;5014602;28;20049;-60
2022/04/14 04:46:26;;;;;;;2.60;1.10;;;17.20;62.70;;;;;;5015251;28;20501;-59
2022/04/14 04:48:51;;;;;;;2.20;1.10;;;17.20;62.60;;;;;;5021881;28;20022;-59
2022/04/14 04:51:17;;;;;;;2.70;1.23;;;17.20;62.60;;;;;;5019386;28;20279;-59
2022/04/14 04:53:43;;;;;;;1.85;1.10;;;17.20;62.70;;;;;;5017869;28;20529;-59
2022/04/14 04:56:08;;;;;;;2.72;1.08;;;17.20;62.70;;;;;;5016676;28;20061;-61
2022/04/14 04:58:34;;;;;;;2.55;1.20;;;17.20;62.70;;;;;;5021138;28;20447;-62
2022/04/14 05:01:00;;;;;;;3.63;1.40;;;17.20;62.70;;;;;;5018865;28;20501;-60
2022/04/14 05:03:25;;;;;;;2.55;1.10;;;17.20;62.60;;;;;;5023155;28;20673;-59
2022/04/14 05:05:51;;;;;;;4.07;1.23;;;17.10;62.60;;;;;;5022134;28;20512;-61
2022/04/14 05:08:17;;;;;;;2.92;1.00;;;17.20;62.60;;;;;;5020394;28;20028;-61
2022/04/14 05:10:42;;;;;;;2.60;1.13;;;17.10;62.60;;;;;;5016845;28;20037;-59
2022/04/14 05:13:08;;;;;;;2.58;1.10;;;17.10;62.60;;;;;;5012836;28;20048;-59
2022/04/14 05:15:35;;;;;;;3.80;1.20;;;17.10;62.60;;;;;;5015947;28;20038;-59
2022/04/14 05:18:01;;;;;;;5.13;1.38;;;17.10;62.60;;;;;;5024366;28;20422;-58
2022/04/14 05:20:27;;;;;;;4.50;1.10;;;17.10;63.10;;;;;;5015902;28;20033;-59
2022/04/14 05:22:53;;;;;;;6.25;1.33;;;17.10;63.60;;;;;;5015216;28;20030;-59
2022/04/14 05:25:18;;;;;;;5.43;1.50;;;17.20;63.50;;;;;;5017916;28;20044;-60
2022/04/14 05:27:44;;;;;;;5.50;1.40;;;17.20;63.60;;;;;;5019380;28;20030;-59
2022/04/14 05:30:11;;;;;;;5.35;1.40;;;17.10;63.50;;;;;;5023475;28;20413;-59
2022/04/14 05:32:39;;;;;;;5.97;1.23;;;17.10;63.20;;;;;;5017645;28;20030;-59
2022/04/14 05:35:08;;;;;;;2.83;1.02;;;17.20;63.20;;;;;;5021659;28;20042;-59
2022/04/14 05:37:35;;;;;;;10.07;1.80;;;17.20;63.10;;;;;;5014695;28;20025;-59
2022/04/14 05:40:02;;;;;;;6.47;1.30;;;17.20;63.30;;;;;;5019399;28;20041;-60
2022/04/14 05:42:28;;;;;;;3.75;1.10;;;17.20;63.40;;;;;;5018844;28;20399;-59
2022/04/14 05:44:54;;;;;;;3.50;1.48;;;17.20;63.20;;;;;;5013052;28;20041;-59
2022/04/14 05:47:23;;;;;;;8.52;1.30;;;17.20;63.10;;;;;;5015381;28;20045;-60
2022/04/14 05:49:50;;;;;;;4.43;1.30;;;17.20;62.90;;;;;;5019261;28;20072;-59
2022/04/14 05:52:15;;;;;;;4.88;1.20;;;17.20;63.00;;;;;;5017420;28;20045;-61
2022/04/14 05:54:41;;;;;;;5.05;1.10;;;17.20;63.00;;;;;;5017045;28;20029;-60
2022/04/14 05:57:07;;;;;;;3.85;1.30;;;17.20;62.90;;;;;;5023713;28;20021;-59
2022/04/14 05:59:32;;;;;;;5.65;1.10;;;17.10;62.90;;;;;;5016840;28;20087;-59
2022/04/14 06:01:58;;;;;;;4.97;1.42;;;17.20;62.90;;;;;;5015059;28;20033;-60
2022/04/14 06:04:23;;;;;;;5.95;1.55;;;17.20;62.90;;;;;;5018758;28;20044;-60
2022/04/14 06:06:49;;;;;;;4.88;1.40;;;17.20;62.90;;;;;;5013511;28;20032;-60
2022/04/14 06:09:15;;;;;;;6.60;1.40;;;17.20;62.90;;;;;;5023166;28;20045;-59
2022/04/14 06:11:40;;;;;;;6.80;1.25;;;17.10;62.80;;;;;;5016662;28;20069;-59
2022/04/14 06:14:06;;;;;;;5.90;1.10;;;17.20;62.90;;;;;;5016430;28;20042;-61
2022/04/14 06:16:32;;;;;;;6.50;1.27;;;17.20;62.90;;;;;;5016498;28;20052;-60
2022/04/14 06:18:57;;;;;;;4.65;1.10;;;17.10;62.80;;;;;;5012276;28;20113;-59
2022/04/14 06:21:23;;;;;;;3.08;1.05;;;17.10;62.80;;;;;;5017894;28;20029;-59
2022/04/14 06:23:49;;;;;;;2.88;1.23;;;17.10;62.70;;;;;;5014763;28;20097;-59
2022/04/14 06:26:16;;;;;;;4.70;1.20;;;17.10;62.80;;;;;;5015790;28;20087;-59
2022/04/14 06:28:42;;;;;;;3.28;1.10;;;17.10;63.90;;;;;;5014770;28;20053;-61
2022/04/14 06:31:08;;;;;;;4.72;1.40;;;17.20;62.80;;;;;;5015315;28;20117;-59
2022/04/14 06:33:34;;;;;;;5.72;1.25;;;17.10;62.80;;;;;;5019980;28;20041;-59
2022/04/14 06:35:59;;;;;;;4.95;1.40;;;17.10;62.90;;;;;;5018744;28;20042;-59
2022/04/14 06:38:28;;;;;;;5.25;1.20;;;17.20;63.00;;;;;;5016103;28;20026;-59
2022/04/14 06:40:54;;;;;;;4.05;1.20;;;17.10;63.00;;;;;;5014076;28;20029;-59
2022/04/14 06:43:20;;;;;;;7.80;1.20;;;17.10;63.00;;;;;;5016484;28;20022;-61
2022/04/14 06:45:46;;;;;;;5.90;1.40;;;17.20;63.20;;;;;;5022790;28;20060;-61
2022/04/14 06:48:12;;;;;;;6.35;1.45;;;17.20;63.00;;;;;;5015370;28;20026;-61
2022/04/14 06:50:38;;;;;;;4.82;1.50;;;17.20;62.80;;;;;;5013168;28;20022;-62
2022/04/14 06:53:03;;;;;;;3.47;1.17;;;17.20;64.10;;;;;;5012512;28;20029;-63
2022/04/14 06:55:29;;;;;;;3.20;0.98;;;17.20;63.00;;;;;;5019542;28;20494;-61
2022/04/14 06:57:56;;;;;;;4.78;1.20;;;17.30;63.00;;;;;;5011734;28;20049;-61
2022/04/14 07:00:22;;;;;;;2.33;1.10;;;17.30;62.70;;;;;;5021191;28;20040;-61
2022/04/14 07:02:48;;;;;;;4.78;1.13;;;17.30;62.60;;;;;;5019714;28;20415;-61
2022/04/14 07:05:14;;;;;;;7.15;1.38;;;17.30;62.50;;;;;;5022978;28;20025;-61
2022/04/14 07:07:40;;;;;;;9.57;1.83;;;17.30;63.10;;;;;;5016581;28;20037;-61
2022/04/14 07:10:06;;;;;;;8.85;1.70;;;17.30;64.70;;;;;;5013906;28;20021;-60
2022/04/14 07:12:31;;;;;;;6.57;1.65;;;17.40;66.60;;;;;;5021834;28;20057;-63
2022/04/14 07:15:00;;;;;;;7.93;1.67;;;17.40;67.00;;;;;;5019054;28;20397;-63
2022/04/14 07:17:26;;;;;;;9.30;1.80;;;17.40;65.50;;;;;;5020556;28;20569;-62
2022/04/14 07:19:52;;;;;;;5.88;1.63;;;17.40;65.00;;;;;;5023159;28;20057;-62
2022/04/14 07:22:18;;;;;;;9.43;1.60;;;17.40;65.20;;;;;;5027711;28;20068;-63
2022/04/14 07:24:48;;;;;;;8.75;1.48;;;17.40;65.40;;;;;;5023282;28;20035;-61
2022/04/14 07:27:14;;;;;;;9.13;1.50;;;17.50;65.30;;;;;;5015252;28;20030;-61
2022/04/14 07:29:40;;;;;;;7.60;1.88;;;17.50;65.00;;;;;;5016540;28;20030;-61
2022/04/14 07:32:06;;;;;;;8.13;1.77;;;17.50;65.00;;;;;;5021375;28;20025;-62
2022/04/14 07:34:31;;;;;;;9.88;1.58;;;17.50;64.90;;;;;;5013442;28;20030;-61
2022/04/14 07:36:57;;;;;;;7.70;1.70;;;17.50;65.00;;;;;;5022038;28;20440;-61
2022/04/14 07:39:22;;;;;;;11.48;1.80;;;17.50;64.60;;;;;;5014542;28;20533;-61
2022/04/14 07:41:48;;;;;;;6.68;1.63;;;17.50;64.70;;;;;;5012855;28;20077;-61
2022/04/14 07:44:14;;;;;;;7.53;1.50;;;17.50;64.60;;;;;;5012069;28;20057;-61
2022/04/14 07:46:39;;;;;;;4.25;1.40;;;17.50;64.60;;;;;;5014728;28;20087;-61
2022/04/14 07:49:06;;;;;;;6.53;1.42;;;17.50;64.60;;;;;;5009181;28;20078;-63
2022/04/14 07:51:32;;;;;;;7.55;1.38;;;17.50;64.80;;;;;;5019526;28;20117;-61
2022/04/14 07:53:58;;;;;;;10.85;1.67;;;17.50;64.60;;;;;;5013893;28;20573;-61
2022/04/14 07:56:24;;;;;;;5.88;1.60;;;17.60;64.70;;;;;;5017669;28;20036;-61
2022/04/14 07:58:52;;;;;;;6.93;1.80;;;17.60;64.50;;;;;;5012229;28;20021;-61
2022/04/14 08:01:21;;;;;;;4.07;1.52;;;17.60;64.50;;;;;;5011316;28;20109;-63
2022/04/14 08:03:47;;;;;;;9.50;1.88;;;17.60;64.80;;;;;;5016190;28;20038;-63
2022/04/14 08:06:16;;;;;;;5.47;1.52;;;17.60;64.70;;;;;;5013285;28;20057;-63
2022/04/14 08:08:42;;;;;;;5.13;1.50;;;17.60;64.70;;;;;;5016474;28;20806;-61
2022/04/14 08:11:11;;;;;;;6.93;1.40;;;17.60;64.50;;;;;;5014431;28;20111;-63
2022/04/14 08:13:41;;;;;;;5.00;1.42;;;17.60;64.50;;;;;;5017017;28;20026;-63
2022/04/14 08:16:08;;;;;;;5.00;1.40;;;17.70;64.60;;;;;;5018780;28;20112;-62
2022/04/14 08:18:35;;;;;;;5.88;1.40;;;17.70;64.80;;;;;;5023306;28;20551;-62
2022/04/14 08:21:01;;;;;;;5.30;1.40;;;17.70;64.60;;;;;;5023292;28;20061;-61
2022/04/14 08:23:27;;;;;;;5.07;1.40;;;17.70;64.60;;;;;;5014162;28;20116;-61
2022/04/14 08:25:52;;;;;;;4.82;1.38;;;17.70;64.70;;;;;;5014537;28;20029;-61
2022/04/14 08:28:18;;;;;;;6.53;1.50;;;17.70;64.70;;;;;;5016507;28;20026;-63
2022/04/14 08:30:44;;;;;;;3.38;1.30;;;17.80;64.70;;;;;;5016454;28;20556;-62
2022/04/14 08:33:10;;;;;;;7.05;1.55;;;17.80;64.70;;;;;;5023459;28;20397;-63
2022/04/14 08:35:36;;;;;;;4.93;1.33;;;17.80;64.50;;;;;;5018109;28;20120;-63
2022/04/14 08:38:03;;;;;;;3.25;1.20;;;17.80;64.60;;;;;;5018989;28;20029;-63
2022/04/14 08:40:33;;;;;;;4.32;1.50;;;17.80;64.50;;;;;;5014945;28;20033;-63
2022/04/14 08:43:00;;;;;;;5.45;1.30;;;17.90;64.50;;;;;;5020701;28;20036;-61
2022/04/14 08:45:29;;;;;;;4.13;1.20;;;17.90;64.50;;;;;;5019567;28;20148;-63
2022/04/14 08:47:55;;;;;;;7.43;1.20;;;17.90;64.50;;;;;;5023110;28;20053;-63
2022/04/14 08:50:21;;;;;;;3.55;1.30;;;17.90;64.40;;;;;;5024349;28;20034;-61
2022/04/14 08:52:47;;;;;;;5.15;1.35;;;17.90;64.40;;;;;;5023069;28;20029;-61
2022/04/14 08:55:14;;;;;;;3.83;1.35;;;17.90;64.30;;;;;;5013894;28;20129;-63
2022/04/14 08:57:42;;;;;;;4.15;1.20;;;17.90;64.30;;;;;;5013203;28;20034;-63
2022/04/14 09:00:12;;;;;;;3.78;1.00;;;17.90;64.20;;;;;;5015543;28;20033;-63
2022/04/14 09:02:38;;;;;;;3.58;1.15;;;18.00;64.30;;;;;;5025171;28;20107;-63
2022/04/14 09:05:05;;;;;;;3.60;1.20;;;18.00;64.20;;;;;;5016459;28;20518;-61
2022/04/14 09:07:31;;;;;;;3.88;1.23;;;18.00;64.20;;;;;;5015597;28;20040;-63
2022/04/14 09:09:56;;;;;;;5.38;1.50;;;18.00;64.10;;;;;;5016884;28;20034;-63
2022/04/14 09:12:22;;;;;;;5.30;1.17;;;18.00;64.10;;;;;;5022252;28;20100;-63
2022/04/14 09:14:48;;;;;;;4.78;1.25;;;18.00;64.10;;;;;;5015770;28;20040;-62
2022/04/14 09:17:14;;;;;;;3.78;1.27;;;18.10;64.00;;;;;;5014169;28;20023;-63
2022/04/14 09:19:41;;;;;;;3.22;1.10;;;18.10;64.00;;;;;;5018669;28;20034;-63
2022/04/14 09:22:11;;;;;;;4.93;1.30;;;18.20;64.00;;;;;;5015956;28;20021;-63
2022/04/14 09:24:54;;;;;;;3.75;1.13;;;18.10;63.90;;;;;;5016887;28;20068;-63
2022/04/14 09:27:24;;;;;;;5.45;1.73;;;18.20;63.90;;;;;;5018676;28;20045;-62
2022/04/14 09:29:50;;;;;;;4.70;1.10;;;18.20;63.80;;;;;;5017978;28;20076;-61
2022/04/14 09:32:34;;;;;;;3.85;1.30;;;18.20;63.80;;;;;;5015698;28;20029;-63
2022/04/14 09:35:03;;;;;;;3.28;1.20;;;18.20;63.80;;;;;;5016896;28;20449;-63
2022/04/14 09:37:29;;;;;;;3.92;1.20;;;18.20;63.70;;;;;;5014491;28;20072;-63
2022/04/14 09:40:05;;;;;;;3.10;1.20;;;18.20;63.70;;;;;;5015001;28;20049;-63
2022/04/14 09:42:32;;;;;;;6.05;1.20;;;18.30;63.70;;;;;;5019315;28;20033;-63
2022/04/14 09:45:20;;;;;;;3.35;1.42;;;18.30;63.60;;;;;;5022531;28;20042;-61
2022/04/14 09:47:50;;;;;;;4.20;1.20;;;18.30;63.60;;;;;;5020587;28;20529;-63
2022/04/14 09:50:35;;;;;;;4.95;1.10;;;18.30;63.50;;;;;;5021542;28;20118;-63
2022/04/14 09:53:02;;;;;;;2.60;1.00;;;18.30;63.50;;;;;;5016740;28;20433;-61
2022/04/14 09:55:28;;;;;;;3.97;1.30;;;18.40;63.60;;;;;;5011591;28;20041;-61
2022/04/14 09:58:09;;;;;;;4.30;1.20;;;18.40;63.50;;;;;;5020054;28;20045;-63
2022/04/14 10:00:45;;;;;;;2.13;1.20;;;18.40;63.50;;;;;;5015784;28;20453;-63
2022/04/14 10:03:18;;;;;;;2.67;1.20;;;18.40;63.40;;;;;;5016370;28;20390;-63
2022/04/14 10:05:45;;;;;;;3.53;1.15;;;18.40;63.40;;;;;;5019742;28;20025;-61
2022/04/14 10:08:13;;;;;;;3.85;1.00;;;18.50;63.40;;;;;;5017136;28;20064;-60
2022/04/14 10:10:40;;;;;;;3.47;1.17;;;18.50;63.30;;;;;;5011296;28;20843;-61
2022/04/14 10:13:07;;;;;;;3.47;1.13;;;18.40;63.30;;;;;;5012791;28;20017;-61
2022/04/14 10:15:38;;;;;;;2.50;1.00;;;18.50;63.30;;;;;;5014096;28;20117;-63
2022/04/14 10:18:06;;;;;;;3.05;1.10;;;18.50;63.20;;;;;;5016193;28;20034;-63
2022/04/14 10:20:32;;;;;;;4.03;1.13;;;18.50;63.20;;;;;;5018845;28;20055;-63
2022/04/14 10:22:59;;;;;;;4.03;1.15;;;18.50;63.00;;;;;;5017447;28;20022;-61
2022/04/14 10:25:25;;;;;;;2.45;0.90;;;18.60;63.10;;;;;;5015918;28;20105;-62
2022/04/14 10:27:53;;;;;;;3.05;1.00;;;18.60;63.10;;;;;;5014535;28;20554;-61
2022/04/14 10:30:20;;;;;;;3.10;1.05;;;18.60;63.00;;;;;;5015623;28;20041;-61
2022/04/14 10:32:46;;;;;;;4.30;0.98;;;18.60;63.00;;;;;;5020849;28;20034;-61
2022/04/14 10:35:12;;;;;;;2.22;1.13;;;18.60;63.00;;;;;;5021320;28;20520;-63
2022/04/14 10:37:45;;;;;;;2.67;1.08;;;18.60;63.00;;;;;;5013827;28;20048;-61
2022/04/14 10:40:11;;;;;;;2.83;0.98;;;18.60;62.90;;;;;;5020072;28;20457;-61
2022/04/14 10:42:37;;;;;;;4.68;1.20;;;18.70;62.80;;;;;;5020932;28;20022;-63
2022/04/14 10:45:17;;;;;;;1.85;0.98;;;18.70;63.00;;;;;;5014555;28;20057;-63
2022/04/14 10:47:43;;;;;;;4.88;1.10;;;18.70;63.00;;;;;;5021109;28;20033;-61
2022/04/14 10:50:32;;;;;;;2.83;1.00;;;18.80;62.90;;;;;;5018967;28;20519;-61
2022/04/14 10:53:20;;;;;;;3.28;0.93;;;18.80;62.80;;;;;;5013180;28;20021;-61
2022/04/14 10:55:46;;;;;;;2.67;1.20;;;18.80;62.80;;;;;;5013059;28;20033;-61
2022/04/14 10:58:36;;;;;;;4.57;1.10;;;18.90;62.80;;;;;;5012242;28;20533;-60
2022/04/14 11:01:02;;;;;;;3.28;1.10;;;18.90;62.70;;;;;;5010622;28;20113;-61
2022/04/14 11:03:47;;;;;;;3.00;1.20;;;18.90;62.70;;;;;;5015346;28;20116;-61
2022/04/14 11:06:51;;;;;;;2.88;0.95;;;18.90;62.60;;;;;;5018683;28;20124;-61
2022/04/14 11:09:41;;;;;;;3.63;1.10;;;18.90;62.60;;;;;;5016884;28;20037;-61
2022/04/14 11:12:11;;;;;;;2.63;1.17;;;19.00;62.70;;;;;;5013699;28;20030;-61
2022/04/14 11:14:56;;;;;;;2.55;1.20;;;19.00;62.60;;;;;;5015136;28;20061;-61
2022/04/14 11:17:37;;;;;;;1.88;0.90;;;19.00;62.60;;;;;;5014558;28;20502;-61
2022/04/14 11:20:12;;;;;;;1.92;0.80;;;19.00;62.60;;;;;;5016691;28;20493;-60
2022/04/14 11:22:57;;;;;;;;;;;19.00;62.50;;;;;;5011436;28;20022;-61
2022/04/14 11:25:49;;;;;;;2.33;1.10;;;19.10;62.50;;;;;;5010954;28;19916;-60
2022/04/14 11:28:38;;;;;;;2.20;0.98;;;19.10;62.50;;;;;;5010954;28;20099;-63
2022/04/14 11:31:21;;;;;;;2.33;1.00;;;19.10;62.40;;;;;;5011980;28;20045;-61
2022/04/14 11:33:47;;;;;;;2.72;1.02;;;19.20;62.50;;;;;;5017566;28;20038;-61
2022/04/14 11:36:17;;;;;;;2.95;1.10;;;19.30;62.40;;;;;;5012750;28;20461;-61
2022/04/14 11:39:00;;;;;;;2.88;1.00;;;19.20;62.40;;;;;;5016840;28;20104;-60
2022/04/14 11:41:39;;;;;;;2.95;1.10;;;19.30;62.40;;;;;;5012626;28;20049;-62
2022/04/14 11:44:15;;;;;;;3.20;1.20;;;19.30;62.40;;;;;;5013110;28;20057;-61
2022/04/14 11:46:45;;;;;;;3.00;1.05;;;19.40;62.40;;;;;;5013672;28;20566;-61
2022/04/14 11:49:13;;;;;;;1.95;0.90;;;19.40;62.20;;;;;;5013394;28;20037;-61
2022/04/14 11:51:47;;;;;;;2.00;1.05;;;19.40;62.20;;;;;;5018341;28;20025;-61
2022/04/14 11:54:18;;;;;;;2.13;1.00;;;19.50;62.20;;;;;;5022091;28;20080;-61
2022/04/14 11:56:52;;;;;;;2.05;1.00;;;19.50;62.10;;;;;;5018915;28;20030;-60
2022/04/14 11:59:31;;;;;;;2.63;1.00;;;19.50;62.00;;;;;;5019109;28;20163;-61
2022/04/14 12:02:00;;;;;;;2.53;0.98;;;19.60;62.00;;;;;;5013202;28;20030;-61
2022/04/14 12:04:26;;;;;;;2.50;1.00;;;19.60;61.90;;;;;;5017371;28;20357;-61
2022/04/14 12:06:53;;;;;;;2.20;1.00;;;19.60;61.80;;;;;;5023560;28;20028;-61
2022/04/14 12:09:20;;;;;;;4.60;1.17;;;19.70;61.80;;;;;;5016801;28;20076;-62
2022/04/14 12:11:45;;;;;;;2.83;0.93;;;19.70;61.70;;;;;;5022234;28;20083;-61
2022/04/14 12:14:13;;;;;;;2.35;1.15;;;19.80;61.70;;;;;;5018680;28;20042;-63
2022/04/14 12:16:55;;;;;;;4.22;1.10;;;19.80;61.60;;;;;;5023765;28;20018;-61
2022/04/14 12:19:21;;;;;;;1.75;0.90;;;19.80;61.60;;;;;;5016461;28;20029;-61
2022/04/14 12:22:04;;;;;;;1.88;1.05;;;19.80;61.50;;;;;;5015981;28;20041;-61
2022/04/14 12:24:30;;;;;;;2.85;1.10;;;19.80;61.70;;;;;;5014196;28;20383;-61
2022/04/14 12:26:59;;;;;;;2.22;0.98;;;19.70;61.70;;;;;;5021518;28;20080;-61
2022/04/14 12:29:28;;;;;;;2.03;0.90;;;19.70;61.80;;;;;;5019069;28;20029;-61
2022/04/14 12:31:57;;;;;;;2.72;1.17;;;19.80;61.80;;;;;;5020799;28;20029;-61
2022/04/14 12:34:23;;;;;;;1.38;0.95;;;19.80;61.90;;;;;;5016869;28;20076;-62
2022/04/14 12:36:48;;;;;;;2.08;0.90;;;19.80;61.70;;;;;;5025495;28;20050;-61
2022/04/14 12:39:21;;;;;;;2.35;1.00;;;19.80;61.90;;;;;;5017146;28;20025;-61
2022/04/14 12:41:47;;;;;;;2.22;0.95;;;19.80;61.70;;;;;;5018001;28;20578;-61
2022/04/14 12:44:20;;;;;;;2.03;1.00;;;19.80;61.70;;;;;;5021026;28;20032;-61
2022/04/14 12:46:50;;;;;;;2.38;1.05;;;19.80;61.90;;;;;;5016224;28;20251;-61
2022/04/14 12:49:20;;;;;;;2.72;1.10;;;19.80;62.00;;;;;;5019665;28;20034;-61
2022/04/14 12:51:59;;;;;;;1.90;0.80;;;19.80;61.90;;;;;;5012204;28;20034;-61